Archival Weather

Norman Y Mineta San Jose Intl

San Jose, California (KSJC)

Report from: Wednesday, February 21, 2024 9:07 AM PST
Current time: Sunday, June 16, 2024 11:09 PM PDT

Current weather – Weather history – Daily summaries
Weather forecast

Present weatherFog
Temperature10.0°C (50.0°F)
Wind chill9.6°C (49.3°F)
Dew point8.9°C (48.0°F)
Winds 3 kts (1.5 m/s, 3.5 mph) South (170°)
Visibility1320 ft. (402.3 m)
Clouds Ceiling: Overcast 200 ft. (61 m)
Altimeter30.17 in.Hg (1022 mB)
Relative humidity93 %
Density altitude-721 ft. (-220 m)
Remarks Automated weather observing station with precipitation discriminator
Visibility north southeast southwest west
Flight conditions Low Instrument Meteorological Conditions
Raw dataKSJC 211707Z 17003KT 1/4SM R30L/1600V3500FT FG OVC002 10/09 A3017 RMK AO2 VIS N 3/4 SE 1/8 SW-W 9 T01000089
An error has occurred. This application may no longer respond until reloaded. Reload 🗙